Time;durP1;ratioP1;P1;durP2;ratioP2;P2;SDS_P1;SDS_P2;PMS_P1;PMS_P2;Temp;Humidity;BMP_temperature;BMP_pressure;BME280_temperature;BME280_humidity;BME280_pressure;Samples;Min_cycle;Max_cycle;Signal;HPM_P1;HPM_P2
2022/10/18 00:02:03;;;;;;;11.18;8.15;;;;;;;14.20;100.00;102475.19;5048468;28;20049;-85
2022/10/18 00:04:28;;;;;;;10.55;8.68;;;;;;;14.19;100.00;102473.47;5071944;28;20089;-85
2022/10/18 00:06:53;;;;;;;11.00;8.27;;;;;;;14.20;100.00;102474.34;5061821;28;20025;-85
2022/10/18 00:09:19;;;;;;;9.93;8.55;;;;;;;14.19;100.00;102476.16;5056014;28;20535;-87
2022/10/18 00:11:44;;;;;;;10.93;9.07;;;;;;;14.22;100.00;102475.06;5058197;28;20031;-86
2022/10/18 00:14:09;;;;;;;9.82;8.27;;;;;;;14.20;100.00;102480.53;5056281;28;20134;-86
2022/10/18 00:16:35;;;;;;;12.38;9.10;;;;;;;14.20;100.00;102477.00;5055382;28;20373;-86
2022/10/18 00:19:00;;;;;;;10.40;8.50;;;;;;;14.17;100.00;102475.41;5064868;28;20057;-83
2022/10/18 00:21:26;;;;;;;12.52;8.95;;;;;;;14.18;100.00;102477.09;5060372;28;20112;-86
2022/10/18 00:23:52;;;;;;;11.27;9.13;;;;;;;14.19;100.00;102478.81;5066387;28;20020;-84
2022/10/18 00:26:19;;;;;;;9.68;8.73;;;;;;;14.19;100.00;102477.97;5060786;28;20498;-85
2022/10/18 00:28:46;;;;;;;10.18;8.77;;;;;;;14.18;100.00;102474.44;5053938;28;20025;-85
2022/10/18 00:31:29;;;;;;;12.20;8.70;;;;;;;14.21;100.00;102471.56;5052174;28;20452;-85
2022/10/18 00:33:57;;;;;;;10.50;9.00;;;;;;;14.20;100.00;102474.34;5048392;28;20026;-84
2022/10/18 00:36:24;;;;;;;9.70;8.70;;;;;;;14.20;100.00;102467.16;5055476;28;20171;-85
2022/10/18 00:38:50;;;;;;;11.98;9.32;;;;;;;14.19;100.00;102468.13;5063172;28;20271;-84
2022/10/18 00:41:19;;;;;;;15.43;10.50;;;;;;;14.18;100.00;102465.56;5062435;28;20029;-85
2022/10/18 00:43:53;;;;;;;;;;;;;;;14.28;100.00;102468.50;5049875;28;20495;-84
2022/10/18 00:46:19;;;;;;;15.55;9.20;;;;;;;14.18;100.00;102471.75;5057900;28;19915;-84
2022/10/18 00:48:45;;;;;;;10.43;9.13;;;;;;;14.18;100.00;102473.59;5089296;23;20037;-54
2022/10/18 00:51:11;;;;;;;14.02;8.80;;;;;;;14.18;100.00;102474.44;5056873;28;20033;-52
2022/10/18 00:53:36;;;;;;;11.27;9.50;;;;;;;14.19;100.00;102473.47;5053642;28;20089;-53
2022/10/18 00:56:02;;;;;;;13.60;9.55;;;;;;;14.18;100.00;102479.78;5057033;28;20013;-51
2022/10/18 00:58:27;;;;;;;11.95;9.02;;;;;;;14.18;100.00;102482.44;5054320;28;20036;-50
2022/10/18 01:00:53;;;;;;;15.48;9.60;;;;;;;14.17;100.00;102480.75;5050810;28;20033;-52
2022/10/18 01:03:18;;;;;;;15.60;9.40;;;;;;;14.17;100.00;102485.22;5055228;28;20025;-53
2022/10/18 01:05:46;;;;;;;12.85;9.35;;;;;;;14.16;100.00;102494.22;5051193;28;20033;-49
2022/10/18 01:08:20;;;;;;;17.08;10.40;;;;;;;14.15;100.00;102487.13;5056144;28;20025;-51
2022/10/18 01:10:57;;;;;;;16.00;9.60;;;;;;;14.15;100.00;102496.00;5058081;28;20034;-51
2022/10/18 01:13:28;;;;;;;18.02;9.30;;;;;;;14.15;100.00;102500.50;5048320;28;20021;-52
2022/10/18 01:16:31;;;;;;;14.07;9.88;;;;;;;14.16;100.00;102496.88;5055912;28;20025;-54
2022/10/18 01:19:32;;;;;;;14.15;10.30;;;;;;;14.14;100.00;102491.63;5051422;28;20052;-51
2022/10/18 01:22:32;;;;;;;14.68;9.63;;;;;;;14.15;100.00;102487.13;5052916;28;20040;-52
2022/10/18 01:25:25;;;;;;;11.88;10.00;;;;;;;14.14;100.00;102488.09;5054919;28;20035;-52
2022/10/18 01:28:30;;;;;;;14.32;9.50;;;;;;;14.13;100.00;102489.91;5061029;28;20041;-51
2022/10/18 01:31:02;;;;;;;13.30;9.60;;;;;;;14.10;100.00;102486.59;5051247;28;20017;-54
2022/10/18 01:33:36;;;;;;;14.95;9.77;;;;;;;14.09;100.00;102487.53;5060350;28;20048;-49
2022/10/18 01:36:31;;;;;;;13.25;9.43;;;;;;;14.09;100.00;102487.53;5060341;28;20010;-54
2022/10/18 01:38:59;;;;;;;13.35;9.50;;;;;;;14.06;100.00;102493.94;5053325;28;20044;-54
2022/10/18 01:41:26;;;;;;;14.02;9.82;;;;;;;14.09;100.00;102495.53;5053203;28;20057;-52
2022/10/18 01:43:57;;;;;;;13.43;9.85;;;;;;;14.08;100.00;102494.69;5053659;28;20020;-53
2022/10/18 01:46:24;;;;;;;10.95;9.55;;;;;;;14.07;100.00;102501.00;5053230;28;20014;-54
2022/10/18 01:48:51;;;;;;;10.75;9.10;;;;;;;14.06;100.00;102499.28;5055820;28;20038;-50
2022/10/18 01:51:28;;;;;;;14.82;9.48;;;;;;;14.05;100.00;102490.44;5038547;28;20041;-51
2022/10/18 01:53:54;;;;;;;9.82;8.82;;;;;;;14.03;100.00;102484.31;5042556;28;20016;-53
2022/10/18 01:56:25;;;;;;;15.88;10.10;;;;;;;14.03;100.00;102488.81;5040969;28;20021;-55
2022/10/18 01:59:06;;;;;;;12.18;8.25;;;;;;;14.06;100.00;102492.13;5046772;28;20030;-52
2022/10/18 02:01:54;;;;;;;11.25;9.00;;;;;;;14.06;100.00;102493.94;5041568;28;20044;-55
2022/10/18 02:04:50;;;;;;;12.50;9.23;;;;;;;14.04;100.00;102493.19;5033168;28;20020;-53
2022/10/18 02:07:26;;;;;;;12.63;8.65;;;;;;;14.01;100.00;102493.41;5051737;28;20068;-51
2022/10/18 02:10:02;;;;;;;13.43;8.80;;;;;;;13.99;100.00;102489.94;5050555;28;20033;-54
2022/10/18 02:12:31;;;;;;;10.38;9.38;;;;;;;13.99;100.00;102495.28;5055302;28;20014;-53
2022/10/18 02:14:58;;;;;;;13.50;8.90;;;;;;;13.97;100.00;102498.09;5057267;28;20030;-54
2022/10/18 02:17:28;;;;;;;12.35;9.10;;;;;;;13.95;100.00;102491.97;5040620;28;20038;-51
2022/10/18 02:19:55;;;;;;;12.23;9.10;;;;;;;13.94;100.00;102492.06;5046289;28;20036;-54
2022/10/18 02:22:24;;;;;;;11.02;9.55;;;;;;;13.94;100.00;102494.72;5051997;28;20013;-51
2022/10/18 02:24:55;;;;;;;;;;;;;;;14.04;100.00;102495.88;5043371;28;20018;-50
2022/10/18 02:27:21;;;;;;;13.35;8.43;;;;;;;13.94;100.00;102498.28;5041703;28;19944;-56
2022/10/18 02:29:46;;;;;;;12.07;9.98;;;;;;;13.91;100.00;102498.47;5055530;28;20081;-55
2022/10/18 02:32:33;;;;;;;11.85;9.40;;;;;;;13.91;100.00;102492.28;5040954;28;20405;-57
2022/10/18 02:35:22;;;;;;;14.70;9.05;;;;;;;13.88;100.00;102494.16;5031749;28;20014;-54
2022/10/18 02:37:49;;;;;;;13.05;8.25;;;;;;;13.88;100.00;102506.69;5056878;28;20068;-55
2022/10/18 02:40:15;;;;;;;10.18;8.90;;;;;;;13.86;100.00;102497.91;5034037;28;20046;-54
2022/10/18 02:42:49;;;;;;;13.10;9.45;;;;;;;13.85;100.00;102507.72;5039788;28;20029;-55
2022/10/18 02:45:15;;;;;;;10.65;8.73;;;;;;;13.82;100.00;102507.94;5039682;28;20033;-52
2022/10/18 02:47:41;;;;;;;9.82;8.57;;;;;;;13.80;100.00;102512.50;5047001;28;20025;-53
2022/10/18 02:50:07;;;;;;;15.55;9.88;;;;;;;13.81;100.00;102510.69;5054745;28;20053;-53
2022/10/18 02:52:33;;;;;;;14.85;9.95;;;;;;;13.80;100.00;102508.97;5056501;28;20037;-52
2022/10/18 02:54:58;;;;;;;10.75;9.07;;;;;;;13.80;100.00;102508.97;5053203;28;20022;-56
2022/10/18 02:57:23;;;;;;;15.25;9.98;;;;;;;13.79;100.00;102516.16;5053261;28;20061;-55
2022/10/18 02:59:48;;;;;;;10.23;9.00;;;;;;;13.80;100.00;102511.66;5039519;28;20025;-55
2022/10/18 03:02:14;;;;;;;10.20;8.48;;;;;;;13.79;100.00;102512.59;5053662;28;20295;-51
2022/10/18 03:04:39;;;;;;;13.20;9.35;;;;;;;13.76;100.00;102499.47;5051610;28;20041;-53
2022/10/18 03:07:04;;;;;;;10.43;9.38;;;;;;;13.77;100.00;102502.03;5054903;28;20013;-53
2022/10/18 03:09:29;;;;;;;12.80;9.10;;;;;;;13.76;100.00;102500.31;5050116;28;20029;-53
2022/10/18 03:11:55;;;;;;;13.60;9.60;;;;;;;13.76;100.00;102502.97;5037444;28;20770;-53
2022/10/18 03:14:20;;;;;;;12.63;8.85;;;;;;;13.76;100.00;102508.31;5028987;28;20013;-53
2022/10/18 03:16:45;;;;;;;13.27;9.27;;;;;;;13.77;100.00;102510.03;5045275;28;20017;-53
2022/10/18 03:19:11;;;;;;;11.77;9.17;;;;;;;13.76;100.00;102499.47;5042845;28;20018;-54
2022/10/18 03:21:36;;;;;;;10.05;8.77;;;;;;;13.76;100.00;102502.97;5039103;28;20273;-52
2022/10/18 03:24:01;;;;;;;10.27;8.80;;;;;;;13.76;100.00;102507.47;5042827;28;20052;-53
2022/10/18 03:26:27;;;;;;;15.10;9.05;;;;;;;13.74;100.00;102512.91;5036133;28;20034;-56
2022/10/18 03:28:53;;;;;;;10.20;8.67;;;;;;;13.75;100.00;102519.94;5043491;28;20068;-53
2022/10/18 03:31:18;;;;;;;9.90;8.73;;;;;;;13.74;100.00;102512.03;5047243;28;20288;-52
2022/10/18 03:33:45;;;;;;;10.40;9.38;;;;;;;13.74;100.00;102514.69;5041224;28;20109;-55
2022/10/18 03:36:11;;;;;;;13.20;9.95;;;;;;;13.72;100.00;102505.94;5048741;28;20017;-51
2022/10/18 03:38:36;;;;;;;16.98;10.55;;;;;;;13.73;100.00;102511.19;5041071;28;20090;-53
2022/10/18 03:41:02;;;;;;;12.93;10.35;;;;;;;13.71;100.00;102510.44;5045039;28;20057;-54
2022/10/18 03:43:27;;;;;;;17.67;12.00;;;;;;;13.73;100.00;102519.19;5038057;28;20045;-54
2022/10/18 03:45:52;;;;;;;12.57;11.27;;;;;;;13.71;100.00;102513.09;5043982;28;20017;-54
2022/10/18 03:48:18;;;;;;;13.93;10.43;;;;;;;13.72;100.00;102511.28;5044318;28;20053;-52
2022/10/18 03:50:43;;;;;;;16.45;10.48;;;;;;;13.70;100.00;102506.03;5041804;28;20085;-53
2022/10/18 03:53:08;;;;;;;13.27;11.05;;;;;;;13.69;100.00;102504.34;5040911;28;20061;-54
2022/10/18 03:55:34;;;;;;;14.38;11.45;;;;;;;13.66;100.00;102497.34;5032382;28;20033;-53
2022/10/18 03:57:59;;;;;;;16.58;11.73;;;;;;;13.65;100.00;102494.78;5038691;28;20040;-54
2022/10/18 04:00:25;;;;;;;16.95;12.52;;;;;;;13.66;100.00;102488.50;5038354;28;20030;-52
2022/10/18 04:02:50;;;;;;;12.55;11.07;;;;;;;13.64;100.00;102498.44;5047976;28;20021;-52
2022/10/18 04:05:15;;;;;;;14.32;10.93;;;;;;;13.63;100.00;102500.22;5044748;28;20029;-51
2022/10/18 04:07:40;;;;;;;12.52;10.50;;;;;;;13.63;100.00;102502.03;5042184;28;20028;-55
2022/10/18 04:10:06;;;;;;;15.95;12.07;;;;;;;13.61;100.00;102496.78;5052246;28;20233;-52
2022/10/18 04:12:31;;;;;;;14.57;12.25;;;;;;;13.58;100.00;102501.47;5044736;28;20109;-52
2022/10/18 04:14:57;;;;;;;18.25;12.38;;;;;;;13.59;100.00;102497.84;5049369;28;20022;-53
2022/10/18 04:17:22;;;;;;;13.60;11.32;;;;;;;13.59;100.00;102503.19;5038204;28;20086;-53
2022/10/18 04:19:48;;;;;;;13.43;11.75;;;;;;;13.57;100.00;102497.06;5042405;28;20032;-53
2022/10/18 04:22:14;;;;;;;12.60;11.20;;;;;;;13.55;100.00;102496.31;5041358;28;20038;-55
2022/10/18 04:24:39;;;;;;;14.10;11.40;;;;;;;13.54;100.00;102502.59;5052801;28;20029;-53
2022/10/18 04:27:06;;;;;;;14.82;11.27;;;;;;;13.52;100.00;102505.38;5046853;28;20046;-51
2022/10/18 04:29:31;;;;;;;14.30;12.80;;;;;;;13.51;100.00;102511.69;5047511;28;20025;-56
2022/10/18 04:31:56;;;;;;;15.90;12.18;;;;;;;13.50;100.00;102505.47;5047997;28;20021;-53
2022/10/18 04:34:22;;;;;;;13.35;11.43;;;;;;;13.47;100.00;102510.13;5041802;28;20029;-55
2022/10/18 04:36:47;;;;;;;20.48;12.38;;;;;;;13.47;100.00;102511.03;5037431;28;20041;-55
2022/10/18 04:39:12;;;;;;;18.60;12.77;;;;;;;13.47;100.00;102518.16;5041337;28;20029;-53
2022/10/18 04:41:38;;;;;;;16.25;12.73;;;;;;;13.44;100.00;102518.34;5039833;28;20028;-54
2022/10/18 04:44:03;;;;;;;13.57;11.70;;;;;;;13.43;100.00;102520.16;5039265;28;20103;-53
2022/10/18 04:46:29;;;;;;;16.10;11.90;;;;;;;13.41;100.00;102508.72;5045470;28;20048;-54
2022/10/18 04:48:54;;;;;;;16.58;12.25;;;;;;;13.41;100.00;102506.06;5046351;28;20046;-53
2022/10/18 04:51:19;;;;;;;14.15;11.88;;;;;;;13.40;100.00;102504.31;5052167;28;20029;-55
2022/10/18 04:53:44;;;;;;;14.77;12.73;;;;;;;13.38;100.00;102521.41;5045723;28;20033;-55
2022/10/18 04:56:10;;;;;;;14.05;11.90;;;;;;;13.38;100.00;102524.91;5051813;28;20078;-52
2022/10/18 04:58:35;;;;;;;14.88;11.25;;;;;;;13.36;100.00;102534.84;5044583;28;20049;-53
2022/10/18 05:01:04;;;;;;;15.68;12.27;;;;;;;13.32;100.00;102527.97;5031524;28;20019;-53
2022/10/18 05:03:29;;;;;;;12.45;11.15;;;;;;;13.31;100.00;102520.88;5045550;28;20013;-52
2022/10/18 05:05:54;;;;;;;14.77;11.88;;;;;;;13.27;100.00;102512.22;5031027;28;20144;-55
2022/10/18 05:08:20;;;;;;;12.25;10.95;;;;;;;13.26;100.00;102512.31;5041524;28;20020;-53
2022/10/18 05:10:46;;;;;;;16.70;11.07;;;;;;;13.24;100.00;102515.06;5049079;28;20029;-52
2022/10/18 05:13:11;;;;;;;12.25;11.00;;;;;;;13.27;100.00;102522.00;5041562;28;20064;-54
2022/10/18 05:15:36;;;;;;;13.02;11.68;;;;;;;13.24;100.00;102525.75;5045827;28;20041;-53
2022/10/18 05:18:01;;;;;;;15.57;11.20;;;;;;;13.25;100.00;102531.94;5039754;28;20025;-55
2022/10/18 05:20:27;;;;;;;12.80;10.90;;;;;;;13.21;100.00;102525.09;5043235;28;20064;-55
2022/10/18 05:22:52;;;;;;;13.25;11.80;;;;;;;13.21;100.00;102533.09;5046297;28;20073;-54
2022/10/18 05:25:17;;;;;;;12.88;11.00;;;;;;;13.20;100.00;102534.03;5046616;28;20036;-51
2022/10/18 05:27:42;;;;;;;13.20;11.15;;;;;;;13.18;100.00;102541.28;5044843;28;20014;-54
2022/10/18 05:30:08;;;;;;;15.95;11.10;;;;;;;13.15;100.00;102536.97;5040252;28;20018;-54
2022/10/18 05:32:34;;;;;;;14.90;11.32;;;;;;;13.14;100.00;102536.13;5035346;28;20030;-53
2022/10/18 05:34:59;;;;;;;19.00;11.95;;;;;;;13.14;100.00;102546.78;5011605;28;20574;-55
2022/10/18 05:37:24;;;;;;;14.07;12.02;;;;;;;13.10;100.00;102534.56;5012261;28;20030;-55
2022/10/18 05:39:49;;;;;;;15.68;12.48;;;;;;;13.09;100.00;102535.53;5012615;28;20539;-55
2022/10/18 05:42:15;;;;;;;13.90;11.88;;;;;;;13.09;100.00;102543.53;5013030;28;20057;-54
2022/10/18 05:44:40;;;;;;;16.02;12.48;;;;;;;13.08;100.00;102530.28;5011647;28;20049;-57
2022/10/18 05:47:05;;;;;;;16.80;12.40;;;;;;;13.06;100.00;102530.38;5011716;28;20476;-54
2022/10/18 05:49:31;;;;;;;17.70;12.75;;;;;;;13.02;100.00;102528.84;5010855;28;20300;-55
2022/10/18 05:51:56;;;;;;;16.15;13.60;;;;;;;12.99;100.00;102534.38;5014477;28;20472;-55
2022/10/18 05:54:21;;;;;;;19.10;13.35;;;;;;;13.00;100.00;102541.41;5015955;28;20037;-54
2022/10/18 05:56:46;;;;;;;16.67;13.25;;;;;;;12.98;100.00;102546.00;5013437;28;20096;-54
2022/10/18 05:59:12;;;;;;;17.50;13.95;;;;;;;12.98;100.00;102543.31;5017131;28;20396;-54
2022/10/18 06:01:39;;;;;;;18.85;13.95;;;;;;;12.98;100.00;102540.66;5017912;28;20068;-54
2022/10/18 06:04:04;;;;;;;18.17;13.65;;;;;;;12.94;100.00;102550.66;5023357;28;20030;-53
2022/10/18 06:06:30;;;;;;;26.55;14.23;;;;;;;12.92;100.00;102557.88;5018818;28;20042;-55
2022/10/18 06:08:56;;;;;;;19.75;13.07;;;;;;;12.94;100.00;102563.13;5026902;28;20025;-54
2022/10/18 06:11:22;;;;;;;23.55;14.00;;;;;;;12.90;100.00;102561.59;5025703;28;20069;-54
2022/10/18 06:13:49;;;;;;;24.00;14.32;;;;;;;12.89;100.00;102566.06;5026710;28;20056;-54
2022/10/18 06:16:17;;;;;;;25.77;14.68;;;;;;;12.87;100.00;102559.97;5017682;28;20042;-54
2022/10/18 06:18:46;;;;;;;15.02;13.45;;;;;;;12.83;100.00;102555.75;5020258;28;20026;-54
2022/10/18 06:21:11;;;;;;;;;;;;;;;12.94;100.00;102569.31;5023536;28;20081;-55
2022/10/18 06:23:37;;;;;;;17.60;15.20;;;;;;;12.84;100.00;102572.59;5018831;28;19932;-53
2022/10/18 06:26:05;;;;;;;15.90;13.90;;;;;;;12.83;100.00;102573.56;5019639;28;20054;-55
2022/10/18 06:28:33;;;;;;;21.52;14.20;;;;;;;12.81;100.00;102571.00;5022486;28;20033;-54
2022/10/18 06:30:58;;;;;;;22.17;15.90;;;;;;;12.80;100.00;102571.94;5017876;28;20045;-53
2022/10/18 06:33:24;;;;;;;16.13;13.15;;;;;;;12.79;100.00;102575.56;5019836;28;20029;-53
2022/10/18 06:35:58;;;;;;;14.93;13.32;;;;;;;12.81;100.00;102581.66;5015894;28;20101;-54
2022/10/18 06:38:23;;;;;;;27.42;12.93;;;;;;;12.78;100.00;102582.69;5015504;28;20022;-54
2022/10/18 06:40:49;;;;;;;25.83;13.18;;;;;;;12.81;100.00;102580.81;5019364;28;20040;-54
2022/10/18 06:43:14;;;;;;;23.10;12.93;;;;;;;12.81;100.00;102589.66;5020545;28;20056;-53
2022/10/18 06:45:39;;;;;;;21.75;12.27;;;;;;;12.80;100.00;102582.59;5019988;28;20045;-54
2022/10/18 06:48:05;;;;;;;14.35;12.65;;;;;;;12.82;100.00;102583.34;5016025;28;20383;-53
2022/10/18 06:50:30;;;;;;;21.92;12.00;;;;;;;12.82;100.00;102580.69;5018117;28;20034;-54
2022/10/18 06:52:56;;;;;;;29.45;12.65;;;;;;;12.82;100.00;102586.03;5017096;28;20080;-53
2022/10/18 06:55:21;;;;;;;19.65;13.07;;;;;;;12.83;100.00;102598.41;5013971;28;20049;-55
2022/10/18 06:57:46;;;;;;;18.73;12.48;;;;;;;12.87;100.00;102615.09;5015445;28;20025;-53
2022/10/18 07:00:12;;;;;;;16.30;13.13;;;;;;;12.83;100.00;102608.22;5017275;28;20037;-54
2022/10/18 07:02:40;;;;;;;19.38;11.60;;;;;;;12.89;100.00;102622.06;5015384;28;20033;-55
2022/10/18 07:05:09;;;;;;;15.82;11.80;;;;;;;12.89;100.00;102613.19;5016263;28;20421;-54
2022/10/18 07:07:35;;;;;;;17.77;12.55;;;;;;;12.90;100.00;102614.91;5000610;28;20065;-54
2022/10/18 07:10:00;;;;;;;18.67;11.18;;;;;;;12.89;100.00;102626.53;5004784;28;20026;-54
2022/10/18 07:12:26;;;;;;;13.18;10.82;;;;;;;12.90;100.00;102633.59;5032140;28;20030;-55
2022/10/18 07:14:51;;;;;;;12.13;10.70;;;;;;;12.89;100.00;102643.41;5028599;28;20030;-53
2022/10/18 07:17:16;;;;;;;14.15;10.75;;;;;;;12.90;100.00;102641.59;5029076;28;20018;-52
2022/10/18 07:19:42;;;;;;;16.67;10.13;;;;;;;12.90;100.00;102634.44;5031471;28;20014;-53
2022/10/18 07:22:07;;;;;;;12.15;10.73;;;;;;;12.92;100.00;102629.00;5024305;28;20293;-55
2022/10/18 07:24:32;;;;;;;14.15;11.57;;;;;;;12.94;100.00;102630.66;5028292;28;20041;-55
2022/10/18 07:26:57;;;;;;;17.17;12.10;;;;;;;12.95;100.00;102634.19;5028400;28;20032;-52
2022/10/18 07:29:23;;;;;;;14.63;13.30;;;;;;;13.00;100.00;102655.25;5028294;28;20029;-53
2022/10/18 07:31:48;;;;;;;15.18;13.55;;;;;;;13.03;100.00;102661.28;5029236;28;20026;-54
2022/10/18 07:34:14;;;;;;;22.63;14.52;;;;;;;13.07;100.00;102651.28;5028021;28;20034;-56
2022/10/18 07:36:39;;;;;;;19.23;14.65;;;;;;;13.10;100.00;102667.09;5025270;28;20026;-53
2022/10/18 07:39:05;;;;;;;19.83;15.48;;;;;;;13.14;100.00;102664.19;5020318;28;20022;-53
2022/10/18 07:41:32;;;;;;;26.17;16.58;;;;;;;13.18;100.00;102666.66;5005300;28;20439;-54
2022/10/18 07:43:58;;;;;;;21.38;17.33;;;;;;;13.22;100.00;102670.88;5012480;28;20502;-53
2022/10/18 07:46:23;;;;;;;22.58;16.58;;;;;;;13.24;100.00;102675.19;5012202;28;20086;-55
2022/10/18 07:48:49;;;;;;;21.25;17.77;;;;;;;13.28;100.00;102674.03;5020249;28;20069;-53
2022/10/18 07:51:16;;;;;;;21.83;17.02;;;;;;;13.33;100.00;102689.81;5013009;28;20057;-53
2022/10/18 07:53:41;;;;;;;25.05;17.92;;;;;;;13.36;100.00;102694.13;5011826;28;20034;-50
2022/10/18 07:56:19;;;;;;;23.98;17.70;;;;;;;13.36;100.00;102692.31;5010222;28;20053;-52
2022/10/18 07:58:47;;;;;;;35.08;18.40;;;;;;;13.40;100.00;102699.16;5018173;28;20025;-52
2022/10/18 08:01:14;;;;;;;29.60;17.58;;;;;;;13.46;100.00;102703.31;5014487;28;20023;-53
2022/10/18 08:03:40;;;;;;;28.95;19.63;;;;;;;13.53;100.00;102704.66;5013845;28;20022;-54
2022/10/18 08:06:08;;;;;;;30.15;18.33;;;;;;;13.57;100.00;102710.66;5010824;28;20030;-53
2022/10/18 08:08:34;;;;;;;26.38;18.63;;;;;;;13.63;100.00;102713.81;5012549;28;20033;-54
2022/10/18 08:11:05;;;;;;;27.15;19.70;;;;;;;13.66;100.00;102718.13;5006949;28;20038;-53
2022/10/18 08:13:31;;;;;;;28.42;19.13;;;;;;;13.73;100.00;102726.63;5011907;28;20041;-53
2022/10/18 08:16:02;;;;;;;27.23;19.02;;;;;;;13.77;100.00;102726.38;5018789;28;20046;-49
2022/10/18 08:18:28;;;;;;;25.73;18.52;;;;;;;13.79;100.00;102726.25;5001691;28;20058;-54
2022/10/18 08:20:53;;;;;;;29.45;19.98;;;;;;;13.85;100.00;102728.56;5005461;28;20029;-54
2022/10/18 08:23:18;;;;;;;29.60;19.25;;;;;;;13.88;100.00;102726.56;5009864;28;20238;-53
2022/10/18 08:25:43;;;;;;;26.77;19.75;;;;;;;13.97;100.00;102724.28;5006473;28;20035;-54
2022/10/18 08:28:09;;;;;;;29.80;19.63;;;;;;;14.05;100.00;102727.34;5012176;28;20038;-53
2022/10/18 08:30:35;;;;;;;28.67;21.08;;;;;;;14.13;100.00;102733.06;5006787;28;20026;-53
2022/10/18 08:33:01;;;;;;;30.85;20.20;;;;;;;14.18;100.00;102736.31;5008119;28;20033;-53
2022/10/18 08:35:26;;;;;;;29.10;20.52;;;;;;;14.25;100.00;102740.34;5015534;28;20063;-53
2022/10/18 08:37:51;;;;;;;29.48;20.10;;;;;;;14.27;100.00;102744.72;5019477;28;20081;-52
2022/10/18 08:40:17;;;;;;;24.83;18.42;;;;;;;14.30;100.00;102748.06;5022275;28;20081;-52
2022/10/18 08:43:15;;;;;;;29.08;18.83;;;;;;;14.39;100.00;102747.50;5022116;28;20029;-53
2022/10/18 08:45:43;;;;;;;31.88;19.83;;;;;;;14.37;100.00;102737.84;5021703;28;20037;-53
2022/10/18 08:48:22;;;;;;;27.55;19.30;;;;;;;14.41;100.00;102739.38;5022393;28;20196;-54
2022/10/18 08:50:49;;;;;;;29.55;19.75;;;;;;;14.52;100.00;102746.72;5021929;28;20034;-54
2022/10/18 08:53:32;;;;;;;31.83;20.23;;;;;;;14.61;100.00;102757.72;5022119;28;20026;-51
2022/10/18 08:56:13;;;;;;;28.67;20.63;;;;;;;14.61;100.00;102741.69;5022432;28;20025;-53
2022/10/18 08:58:39;;;;;;;33.72;21.83;;;;;;;14.79;100.00;102746.84;5020769;28;20049;-52
2022/10/18 09:01:29;;;;;;;30.02;21.33;;;;;;;14.89;100.00;102745.28;5024187;28;20079;-52
2022/10/18 09:04:08;;;;;;;37.60;21.02;;;;;;;14.99;100.00;102751.75;5019296;28;20090;-52
2022/10/18 09:07:06;;;;;;;30.58;20.75;;;;;;;15.18;100.00;102750.53;5019751;28;20026;-54
2022/10/18 09:09:58;;;;;;;28.00;18.23;;;;;;;15.28;100.00;102748.97;5023522;28;20526;-53
2022/10/18 09:12:47;;;;;;;30.88;17.75;;;;;;;15.37;100.00;102750.19;5023833;28;20030;-53
2022/10/18 09:15:25;;;;;;;22.55;14.45;;;;;;;15.35;100.00;102750.28;5024291;28;20032;-52
2022/10/18 09:18:15;;;;;;;26.45;15.60;;;;;;;15.51;100.00;102754.63;5025439;28;20117;-52
2022/10/18 09:20:55;;;;;;;29.38;15.63;;;;;;;15.65;100.00;102759.03;5026420;28;20045;-53
2022/10/18 09:23:45;;;;;;;25.67;15.57;;;;;;;15.76;100.00;102756.53;5025380;28;20022;-53
2022/10/18 09:26:17;;;;;;;23.95;15.27;;;;;;;15.82;100.00;102752.56;5026404;28;20033;-53
2022/10/18 09:29:08;;;;;;;21.60;13.95;;;;;;;15.93;100.00;102752.69;5025030;28;20034;-53
2022/10/18 09:32:09;;;;;;;24.15;13.93;;;;;;;16.12;100.00;102762.13;5023604;28;20036;-53
2022/10/18 09:34:51;;;;;;;24.20;12.88;;;;;;;16.31;100.00;102743.78;5015396;28;20038;-52
2022/10/18 09:37:19;;;;;;;22.38;12.63;;;;;;;16.46;99.11;102744.53;5027376;28;20047;-53
2022/10/18 09:39:47;;;;;;;18.58;11.20;;;;;;;16.58;96.13;102758.88;5032652;28;20093;-53
2022/10/18 09:42:25;;;;;;;21.23;11.15;;;;;;;16.69;94.92;102758.97;5035183;28;20036;-53
2022/10/18 09:44:54;;;;;;;24.37;11.13;;;;;;;16.83;92.34;102752.59;5031642;28;20404;-53
2022/10/18 09:47:35;;;;;;;18.85;10.57;;;;;;;17.03;95.84;102759.22;5029294;28;20320;-52
2022/10/18 09:50:13;;;;;;;19.05;9.93;;;;;;;17.12;93.64;102755.84;5042935;28;20042;-55
2022/10/18 09:52:47;;;;;;;19.30;8.90;;;;;;;17.20;89.69;102763.31;5028023;28;20045;-52
2022/10/18 09:55:22;;;;;;;21.17;8.82;;;;;;;17.27;90.70;102767.28;5033777;28;20030;-53
2022/10/18 09:57:55;;;;;;;17.92;7.97;;;;;;;17.34;87.71;102763.16;5035317;28;20094;-55
2022/10/18 10:00:24;;;;;;;14.18;8.18;;;;;;;17.40;86.22;102764.50;5038668;28;20041;-54
2022/10/18 10:02:50;;;;;;;17.25;8.80;;;;;;;17.54;85.52;102763.50;5044278;28;20080;-53
2022/10/18 10:05:15;;;;;;;21.02;9.48;;;;;;;17.53;85.35;102746.50;5034894;28;20050;-55
2022/10/18 10:07:43;;;;;;;17.77;9.43;;;;;;;17.71;85.31;102755.00;5037835;28;20022;-53
2022/10/18 10:10:15;;;;;;;17.88;9.18;;;;;;;17.79;84.79;102762.47;5035105;28;20031;-54
2022/10/18 10:12:40;;;;;;;19.13;8.98;;;;;;;17.98;84.20;102753.00;5037458;28;20044;-54
2022/10/18 10:15:20;;;;;;;21.38;9.43;;;;;;;18.17;85.78;102750.59;5039290;28;20058;-54
2022/10/18 10:18:16;;;;;;;20.30;9.02;;;;;;;18.20;84.14;102757.56;5050804;28;20013;-55
2022/10/18 10:20:46;;;;;;;16.45;8.45;;;;;;;18.36;81.48;102754.53;5028922;28;20041;-54
2022/10/18 10:23:29;;;;;;;19.98;8.45;;;;;;;18.52;84.26;102751.44;5012025;28;20038;-55
2022/10/18 10:25:58;;;;;;;22.58;9.50;;;;;;;18.63;80.22;102757.66;5012894;28;20067;-54
2022/10/18 10:28:35;;;;;;;21.85;9.65;;;;;;;18.67;83.09;102755.63;5012653;28;20570;-54
2022/10/18 10:31:15;;;;;;;19.60;9.25;;;;;;;18.85;82.55;102753.25;5026593;28;20479;-54
2022/10/18 10:33:45;;;;;;;20.40;8.85;;;;;;;19.12;80.29;102749.28;5024780;28;20468;-54
2022/10/18 10:36:19;;;;;;;17.20;8.45;;;;;;;19.03;78.96;102764.38;5013342;28;20116;-54
2022/10/18 10:38:44;;;;;;;16.42;8.15;;;;;;;19.16;78.76;102777.69;5012697;28;20025;-53
2022/10/18 10:41:21;;;;;;;23.08;8.27;;;;;;;19.08;78.91;102769.38;5017386;28;20104;-55
2022/10/18 10:43:48;;;;;;;18.65;8.35;;;;;;;19.24;75.47;102783.31;5012792;28;20373;-54
2022/10/18 10:46:17;;;;;;;15.30;7.20;;;;;;;19.32;73.08;102783.53;5013220;28;20080;-54
2022/10/18 10:48:57;;;;;;;14.90;5.45;;;;;;;19.40;74.40;102778.34;5012838;28;20488;-54
2022/10/18 10:51:31;;;;;;;16.73;6.05;;;;;;;19.42;74.42;102783.63;5012791;28;20068;-54
2022/10/18 10:54:02;;;;;;;15.00;6.03;;;;;;;19.44;70.52;102794.25;5012249;28;20033;-54
2022/10/18 10:56:30;;;;;;;14.18;5.40;;;;;;;19.50;71.71;102782.94;5013162;28;20022;-55
2022/10/18 10:59:00;;;;;;;19.05;6.13;;;;;;;19.50;71.68;102788.34;5012664;28;20100;-56
2022/10/18 11:01:31;;;;;;;13.23;4.95;;;;;;;19.59;70.66;102782.19;5007705;28;20484;-55
2022/10/18 11:04:22;;;;;;;13.25;5.07;;;;;;;19.62;69.85;102783.75;5006317;28;20052;-54
2022/10/18 11:07:26;;;;;;;13.50;4.88;;;;;;;19.72;72.00;102784.72;5002840;28;20030;-55
2022/10/18 11:10:00;;;;;;;14.27;5.05;;;;;;;19.66;68.67;102788.75;5004561;28;20551;-56
2022/10/18 11:12:33;;;;;;;17.77;5.45;;;;;;;19.88;71.62;102786.97;5008233;28;20088;-54
2022/10/18 11:15:08;;;;;;;17.35;5.80;;;;;;;19.83;69.45;102784.66;5011394;28;20353;-54
2022/10/18 11:18:09;;;;;;;13.68;4.38;;;;;;;20.00;74.14;102787.75;5010444;28;20426;-54
2022/10/18 11:20:39;;;;;;;13.25;4.57;;;;;;;19.89;70.36;102784.13;5017480;28;20377;-55